Time;durP1;ratioP1;P1;durP2;ratioP2;P2;SDS_P1;SDS_P2;PMS_P1;PMS_P2;Temp;Humidity;BMP_temperature;BMP_pressure;BME280_temperature;BME280_humidity;BME280_pressure;Samples;Min_cycle;Max_cycle;Signal;HPM_P1;HPM_P2
2024/04/11 00:02:20;;;;;;;7.43;2.58;;;;;;;9.92;49.91;99575.13;11138882;26;22409;-81
2024/04/11 00:07:26;;;;;;;6.57;2.20;;;;;;;8.77;49.70;99412.50;11144449;26;20020;-80
2024/04/11 00:12:31;;;;;;;4.80;2.60;;;;;;;9.45;49.66;99519.97;11118917;26;20003;-79
2024/04/11 00:17:39;;;;;;;3.58;2.40;;;;;;;8.33;49.64;99356.22;11116028;26;20032;-79
2024/04/11 00:22:44;;;;;;;4.57;2.47;;;;;;;8.83;51.42;99482.34;11134800;26;20456;-80
2024/04/11 00:27:49;;;;;;;3.15;2.38;;;;;;;9.34;50.99;99555.00;11133822;26;20008;-78
2024/04/11 00:32:59;;;;;;;7.07;3.00;;;;;;;9.12;50.56;99534.84;11130534;26;20001;-80
2024/04/11 00:38:09;;;;;;;5.15;2.40;;;;;;;9.10;51.43;99544.00;11105227;26;20000;-80
2024/04/11 00:43:15;;;;;;;;;;;;;;;9.36;46.07;99558.38;11120728;26;20011;-77
2024/04/11 00:48:23;;;;;;;3.67;2.30;;;;;;;9.13;51.62;99557.97;11142701;26;19958;-79
2024/04/11 00:53:30;;;;;;;5.32;2.30;;;;;;;9.04;51.80;99565.03;11132197;26;20183;-80
2024/04/11 00:58:38;;;;;;;5.38;2.40;;;;;;;8.83;52.11;99541.19;11109805;26;20659;-77
2024/04/11 01:03:46;;;;;;;4.40;2.38;;;;;;;8.84;52.22;99547.38;11105450;26;20011;-80
2024/04/11 01:08:52;;;;;;;3.03;2.20;;;;;;;8.52;52.85;99508.53;11136333;26;20812;-79
2024/04/11 01:13:57;;;;;;;7.40;2.33;;;;;;;7.93;52.16;99441.06;11127091;26;20003;-79
2024/04/11 01:19:05;;;;;;;3.78;2.58;;;;;;;8.56;52.52;99550.03;11120862;26;20422;-78
2024/04/11 01:24:13;;;;;;;3.13;2.13;;;;;;;7.17;51.83;99326.28;11113411;26;20521;-78
2024/04/11 01:29:19;;;;;;;5.45;2.33;;;;;;;8.06;52.98;99499.56;11095961;26;20004;-78
2024/04/11 01:34:24;;;;;;;4.97;2.33;;;;;;;8.46;53.53;99578.66;11104276;26;20111;-78
2024/04/11 01:39:32;;;;;;;4.20;2.53;;;;;;;8.08;52.35;99524.28;11097162;26;20408;-78
2024/04/11 01:44:37;;;;;;;3.30;2.50;;;;;;;7.41;52.84;99409.44;11128078;26;20008;-78
2024/04/11 01:49:43;;;;;;;3.88;2.42;;;;;;;8.35;53.33;99562.81;11145603;26;19999;-78
2024/04/11 01:54:51;;;;;;;5.47;2.47;;;;;;;7.64;53.14;99465.19;11108255;26;20058;-78
2024/04/11 01:59:56;;;;;;;4.60;2.05;;;;;;;8.18;54.34;99573.25;11100159;26;21896;-78
2024/04/11 02:05:02;;;;;;;2.85;2.55;;;;;;;8.09;54.21;99558.91;11134997;26;20089;-78
2024/04/11 02:10:10;;;;;;;8.77;2.53;;;;;;;8.05;53.50;99556.69;11097433;26;20008;-79
2024/04/11 02:15:16;;;;;;;3.60;2.50;;;;;;;7.90;54.15;99556.25;11104523;26;20537;-78
2024/04/11 02:20:21;;;;;;;3.22;2.40;;;;;;;7.85;55.01;99566.53;11095506;26;20004;-78
2024/04/11 02:25:29;;;;;;;4.10;2.05;;;;;;;7.85;53.64;99564.69;11103298;26;20001;-78
2024/04/11 02:30:35;;;;;;;7.43;2.33;;;;;;;7.75;54.62;99574.53;11095473;26;20004;-79
2024/04/11 02:35:40;;;;;;;7.00;2.20;;;;;;;7.32;54.07;99511.72;11097922;26;20011;-78
2024/04/11 02:40:48;;;;;;;3.67;2.55;;;;;;;7.72;54.33;99572.16;11117958;26;20044;-79
2024/04/11 02:45:57;;;;;;;3.47;2.30;;;;;;;7.60;55.03;99575.94;11105841;26;20050;-78
2024/04/11 02:51:04;;;;;;;4.65;2.42;;;;;;;7.55;55.08;99575.50;11093167;26;20051;-78
2024/04/11 02:56:13;;;;;;;4.50;2.75;;;;;;;7.59;55.14;99579.63;11100407;26;20004;-78
2024/04/11 03:01:18;;;;;;;3.88;2.58;;;;;;;7.17;54.73;99529.94;11115492;26;20004;-79
2024/04/11 03:06:23;;;;;;;4.35;2.58;;;;;;;7.48;54.95;99585.94;11181515;26;20014;-79
2024/04/11 03:11:31;;;;;;;5.55;2.60;;;;;;;7.50;54.14;99590.13;11187822;26;20073;-79
2024/04/11 03:16:37;;;;;;;4.43;2.72;;;;;;;7.41;54.83;99593.63;11165847;26;20065;-79
2024/04/11 03:21:43;;;;;;;4.03;2.38;;;;;;;6.89;54.79;99505.72;11176372;26;20019;-78
2024/04/11 03:26:51;;;;;;;8.23;2.45;;;;;;;6.32;54.41;99427.28;11174518;26;20004;-78
2024/04/11 03:31:56;;;;;;;3.53;2.30;;;;;;;7.25;55.11;99580.84;11185514;26;20004;-78
2024/04/11 03:37:03;;;;;;;4.05;2.45;;;;;;;5.73;55.59;99352.47;11112420;26;20112;-78
2024/04/11 03:42:11;;;;;;;3.65;2.22;;;;;;;7.20;55.71;99591.03;11107744;26;20004;-78
2024/04/11 03:47:16;;;;;;;5.43;2.85;;;;;;;7.06;56.21;99600.25;11116723;26;20447;-78
2024/04/11 03:52:21;;;;;;;4.13;2.75;;;;;;;6.42;56.28;99517.94;11109848;26;20049;-78
2024/04/11 03:57:30;;;;;;;7.05;2.65;;;;;;;6.82;55.43;99570.44;11105404;26;20004;-78
2024/04/11 04:02:36;;;;;;;6.05;3.10;;;;;;;6.89;55.95;99606.25;11132417;26;20085;-78
2024/04/11 04:07:41;;;;;;;5.85;2.80;;;;;;;4.86;56.42;99330.69;11245254;26;20031;-78
2024/04/11 04:12:52;;;;;;;6.88;2.65;;;;;;;6.00;55.41;99491.38;11246329;26;20003;-78
2024/04/11 04:17:57;;;;;;;3.47;2.58;;;;;;;5.19;56.28;99373.06;11236218;26;20007;-78
2024/04/11 04:23:10;;;;;;;4.22;2.45;;;;;;;6.14;56.17;99547.81;11235302;26;20007;-79
2024/04/11 04:28:18;;;;;;;2.95;2.67;;;;;;;6.63;56.50;99609.38;11236393;26;20021;-78
2024/04/11 04:33:23;;;;;;;3.88;2.63;;;;;;;6.08;56.36;99558.13;11189307;26;20000;-79
2024/04/11 04:38:29;;;;;;;5.40;2.90;;;;;;;5.64;56.93;99506.84;11171334;26;20008;-78
2024/04/11 04:43:37;;;;;;;4.38;2.67;;;;;;;6.55;56.12;99633.19;11151986;26;19999;-78
2024/04/11 04:48:42;;;;;;;6.13;2.50;;;;;;;6.50;56.45;99659.38;11152653;26;20049;-79
2024/04/11 04:53:49;;;;;;;8.50;3.25;;;;;;;5.83;57.44;99552.22;11161835;26;20816;-78
2024/04/11 04:58:58;;;;;;;3.60;2.90;;;;;;;6.46;56.95;99676.63;11189073;26;20077;-78
2024/04/11 05:04:03;;;;;;;2.97;2.38;;;;;;;5.85;56.09;99584.91;11249280;26;20063;-79
2024/04/11 05:09:10;;;;;;;6.03;2.65;;;;;;;4.37;56.55;99347.03;11278834;26;20114;-80
2024/04/11 05:14:18;;;;;;;5.07;2.78;;;;;;;4.49;56.93;99376.22;11262564;26;20003;-80
2024/04/11 05:19:24;;;;;;;5.65;2.95;;;;;;;6.19;57.67;99661.97;11258858;26;20026;-79
2024/04/11 05:24:30;;;;;;;5.78;2.95;;;;;;;4.66;57.64;99418.19;11256176;26;20116;-81
2024/04/11 05:29:38;;;;;;;7.03;2.65;;;;;;;4.87;58.11;99454.66;11272756;26;20070;-80
2024/04/11 05:34:45;;;;;;;;;;;;;;;6.49;53.14;99695.00;11153143;26;20008;-80
2024/04/11 05:39:50;;;;;;;3.90;2.55;;;;;;;5.75;59.20;99610.63;11114374;26;20361;-79
2024/04/11 05:44:58;;;;;;;4.50;2.60;;;;;;;6.13;59.11;99667.81;11151229;26;19999;-79
2024/04/11 05:50:04;;;;;;;4.85;3.22;;;;;;;5.98;59.52;99644.16;11187433;26;20004;-80
2024/04/11 05:55:10;;;;;;;5.05;2.63;;;;;;;6.38;60.24;99695.06;11145971;26;20048;-79
2024/04/11 06:00:22;;;;;;;5.25;3.13;;;;;;;6.36;60.27;99671.25;11179359;26;20109;-79
2024/04/11 06:05:28;;;;;;;7.25;3.40;;;;;;;6.52;61.87;99697.44;11239311;26;19999;-80
2024/04/11 06:10:34;;;;;;;7.72;2.92;;;;;;;4.63;62.50;99362.63;11248092;26;20083;-80
2024/04/11 06:15:44;;;;;;;5.38;3.85;;;;;;;6.79;62.37;99704.06;11255553;26;20080;-80
2024/04/11 06:20:49;;;;;;;5.95;3.50;;;;;;;6.87;62.02;99709.56;11255889;26;20071;-83
2024/04/11 06:25:57;;;;;;;9.05;4.15;;;;;;;6.98;62.80;99704.16;11260187;26;20011;-82
2024/04/11 06:31:08;;;;;;;8.52;3.90;;;;;;;5.49;62.15;99434.47;11250487;26;20394;-81
2024/04/11 06:36:17;;;;;;;5.28;3.50;;;;;;;7.11;61.48;99691.44;11243475;26;20011;-82
2024/04/11 06:41:23;;;;;;;8.13;3.50;;;;;;;7.43;62.48;99716.31;11251201;26;20007;-79
2024/04/11 06:46:33;;;;;;;8.43;3.90;;;;;;;7.30;61.47;99679.16;11242620;26;20071;-79
2024/04/11 06:51:39;;;;;;;8.10;3.83;;;;;;;7.72;61.80;99732.44;11243306;26;20018;-80
2024/04/11 06:56:45;;;;;;;7.32;3.33;;;;;;;7.87;61.36;99740.91;11203690;26;20039;-80
2024/04/11 07:01:53;;;;;;;5.93;3.42;;;;;;;7.95;61.41;99718.81;11198367;26;20003;-79
2024/04/11 07:07:00;;;;;;;10.38;3.40;;;;;;;8.19;61.42;99740.66;11195452;26;20003;-80
2024/04/11 07:12:10;;;;;;;5.13;3.60;;;;;;;7.81;61.70;99643.44;11217285;26;20079;-83
2024/04/11 07:17:18;;;;;;;8.90;4.32;;;;;;;8.60;60.92;99736.00;11218997;26;20052;-80
2024/04/11 07:22:24;;;;;;;7.40;3.83;;;;;;;8.72;61.36;99742.06;11244004;26;20038;-79
2024/04/11 07:27:29;;;;;;;8.20;3.42;;;;;;;8.34;61.18;99652.00;11241607;26;20514;-79
2024/04/11 07:32:40;;;;;;;10.45;3.95;;;;;;;8.20;61.19;99622.06;11212286;26;20018;-79
2024/04/11 07:37:45;;;;;;;8.95;3.80;;;;;;;9.29;58.63;99750.09;11254434;26;20748;-80
2024/04/11 07:42:55;;;;;;;7.18;3.17;;;;;;;8.67;58.77;99603.34;11236339;26;20555;-84
2024/04/11 07:48:04;;;;;;;9.43;3.72;;;;;;;9.47;58.85;99688.56;11220155;26;20007;-80
2024/04/11 07:53:18;;;;;;;6.53;3.53;;;;;;;9.96;57.54;99731.16;11231426;26;20040;-79
2024/04/11 07:58:24;;;;;;;7.45;4.13;;;;;;;10.12;58.46;99720.59;11224710;26;20075;-80
2024/04/11 08:03:32;;;;;;;5.65;3.60;;;;;;;10.45;56.25;99737.00;11218945;26;20108;-80
2024/04/11 08:08:37;;;;;;;5.70;3.60;;;;;;;10.59;56.51;99731.09;11214959;26;20072;-79
2024/04/11 08:13:43;;;;;;;6.93;3.85;;;;;;;10.39;55.88;99683.97;11183937;26;20026;-80
2024/04/11 08:18:53;;;;;;;4.68;3.58;;;;;;;10.52;55.25;99662.94;11238014;26;20096;-80
2024/04/11 08:24:00;;;;;;;8.52;3.70;;;;;;;11.22;55.39;99765.94;11247335;26;20200;-79
2024/04/11 08:29:05;;;;;;;7.55;4.22;;;;;;;11.42;53.35;99734.31;11240828;26;21171;-80
2024/04/11 08:34:14;;;;;;;6.88;4.03;;;;;;;11.65;52.78;99734.59;11248648;26;19998;-79
2024/04/11 08:39:19;;;;;;;12.02;3.75;;;;;;;11.70;52.59;99722.34;11236280;26;20483;-80
2024/04/11 08:44:25;;;;;;;4.30;2.97;;;;;;;11.80;52.63;99691.78;11210306;26;20507;-80
2024/04/11 08:49:33;;;;;;;5.55;3.17;;;;;;;12.32;53.33;99727.41;11222356;26;20015;-80
2024/04/11 08:54:43;;;;;;;8.07;2.90;;;;;;;12.57;53.66;99722.03;11247781;26;20074;-81
2024/04/11 08:59:50;;;;;;;4.03;2.38;;;;;;;12.80;51.47;99732.94;11223609;26;20927;-80
2024/04/11 09:04:58;;;;;;;8.23;3.42;;;;;;;12.19;50.90;99586.28;11157541;26;20069;-80
2024/04/11 09:10:14;;;;;;;5.95;2.88;;;;;;;12.56;49.01;99618.03;11185902;26;20071;-83
2024/04/11 09:15:20;;;;;;;4.22;2.42;;;;;;;13.58;49.53;99744.91;11151805;26;20000;-80
2024/04/11 09:20:32;;;;;;;5.28;2.40;;;;;;;13.19;47.79;99627.09;11145546;26;20130;-81
2024/04/11 09:25:39;;;;;;;6.70;2.28;;;;;;;14.04;43.12;99750.44;11190349;26;20166;-80
2024/04/11 09:30:45;;;;;;;3.90;1.52;;;;;;;12.10;43.44;99414.16;11181915;26;20029;-84
2024/04/11 09:35:58;;;;;;;6.18;2.30;;;;;;;14.47;44.81;99756.25;11161932;26;20003;-82
2024/04/11 09:41:04;;;;;;;5.72;2.20;;;;;;;14.57;43.56;99758.72;11182100;26;20003;-81
2024/04/11 09:46:15;;;;;;;4.03;2.35;;;;;;;14.78;42.98;99758.03;11176654;26;20019;-81
2024/04/11 09:51:23;;;;;;;4.95;2.00;;;;;;;15.03;43.67;99765.91;11179217;26;20466;-82
2024/04/11 09:56:29;;;;;;;4.55;1.88;;;;;;;15.19;41.06;99765.78;11161778;26;20114;-81
2024/04/11 10:01:38;;;;;;;4.00;1.88;;;;;;;15.44;42.44;99779.03;11155193;26;20630;-80
2024/04/11 10:06:48;;;;;;;4.55;1.80;;;;;;;14.64;43.31;99615.69;11215850;26;20016;-80
2024/04/11 10:11:55;;;;;;;4.75;2.40;;;;;;;15.90;42.28;99761.78;11200834;26;20003;-81
2024/04/11 10:17:05;;;;;;;7.38;2.65;;;;;;;15.87;41.52;99721.56;11211600;26;20071;-81
2024/04/11 10:22:15;;;;;;;7.97;3.47;;;;;;;14.19;40.81;99455.50;11192032;26;20043;-82
2024/04/11 10:27:29;;;;;;;4.30;2.80;;;;;;;15.77;43.07;99643.41;11164091;26;20063;-83
2024/04/11 10:32:39;;;;;;;9.05;3.08;;;;;;;16.51;42.72;99737.88;11196185;26;20069;-80
2024/04/11 10:37:49;;;;;;;7.23;3.03;;;;;;;16.84;42.12;99752.81;11199440;26;20003;-81
2024/04/11 10:48:17;;;;;;;5.22;2.22;;;;;;;16.77;39.88;99721.03;11212490;26;19998;-82
2024/04/11 10:53:26;;;;;;;5.13;2.95;;;;;;;17.00;39.70;99698.28;11212045;26;20553;-82
2024/04/11 10:58:35;;;;;;;4.32;2.67;;;;;;;17.40;38.33;99751.97;11192708;26;20004;-80
2024/04/11 11:03:44;;;;;;;4.90;2.40;;;;;;;17.07;37.85;99658.47;11148264;26;21039;-80
2024/04/11 11:08:55;;;;;;;4.77;3.13;;;;;;;17.74;36.50;99753.81;11140784;26;20053;-82
2024/04/11 11:14:01;;;;;;;4.97;2.25;;;;;;;17.78;38.57;99751.56;11178012;26;19999;-84
2024/04/11 11:19:11;;;;;;;8.90;2.65;;;;;;;17.89;38.19;99727.41;11181262;26;20078;-81
2024/04/11 11:24:23;;;;;;;5.38;2.05;;;;;;;18.04;37.91;99696.50;11187571;26;19999;-82
2024/04/11 11:29:31;;;;;;;3.60;2.00;;;;;;;18.38;37.09;99711.84;11187532;26;20072;-81
2024/04/11 11:34:42;;;;;;;4.13;2.00;;;;;;;18.63;35.95;99731.13;11179625;26;20016;-79
2024/04/11 11:39:55;;;;;;;4.60;2.40;;;;;;;18.52;35.92;99675.53;11178107;26;20505;-80
2024/04/11 11:45:08;;;;;;;3.03;2.10;;;;;;;18.71;34.94;99701.03;11176743;26;20003;-80
2024/04/11 11:50:22;;;;;;;4.63;2.13;;;;;;;19.13;36.68;99708.09;11178118;26;20007;-79
2024/04/11 11:55:33;;;;;;;4.60;2.20;;;;;;;18.83;33.05;99632.41;11176933;26;20008;-83
2024/04/11 12:00:49;;;;;;;4.57;1.95;;;;;;;19.27;33.00;99690.72;11164896;26;20003;-79
2024/04/11 12:05:58;;;;;;;2.55;1.30;;;;;;;18.33;32.68;99503.25;11183209;26;20053;-80
2024/04/11 12:11:16;;;;;;;4.40;2.13;;;;;;;19.55;30.17;99665.13;11167053;26;20060;-79
2024/04/11 12:16:22;;;;;;;3.60;1.90;;;;;;;18.76;31.18;99550.03;11174270;26;20091;-80
2024/04/11 12:21:44;;;;;;;4.25;1.85;;;;;;;19.40;31.20;99628.09;11183404;26;20008;-80
2024/04/11 12:26:54;;;;;;;2.92;1.52;;;;;;;19.75;30.31;99674.03;11176257;26;20018;-79
2024/04/11 12:32:02;;;;;;;3.03;1.43;;;;;;;19.53;30.02;99626.34;11196881;26;20088;-79
2024/04/11 12:37:11;;;;;;;4.05;2.10;;;;;;;19.86;29.79;99658.88;11242834;26;20003;-80
2024/04/11 12:42:22;;;;;;;3.17;1.67;;;;;;;19.99;31.60;99663.41;11253666;26;20159;-81
2024/04/11 12:47:38;;;;;;;6.68;1.75;;;;;;;19.36;30.80;99566.97;11222064;26;20056;-82
2024/04/11 12:52:49;;;;;;;5.03;1.98;;;;;;;20.20;29.63;99648.63;11249094;26;20003;-78
2024/04/11 12:58:06;;;;;;;5.13;2.10;;;;;;;19.98;30.50;99590.94;11254445;26;20052;-80
2024/04/11 13:03:19;;;;;;;4.88;2.08;;;;;;;20.19;29.94;99653.22;11226904;26;20040;-81
2024/04/11 13:08:29;;;;;;;2.10;1.58;;;;;;;20.30;32.96;99615.44;11253954;26;20083;-81
2024/04/11 13:13:41;;;;;;;2.47;1.50;;;;;;;20.79;33.59;99641.00;11253453;26;20979;-83
2024/04/11 13:18:47;;;;;;;3.78;2.35;;;;;;;20.85;28.93;99623.75;11234590;26;20003;-81
2024/04/11 13:23:57;;;;;;;;;;;;;;;21.18;32.41;99625.31;11197772;26;20080;-81
2024/04/11 13:29:07;;;;;;;3.67;2.10;;;;;;;21.17;31.16;99620.94;11200996;26;19990;-81
2024/04/11 13:34:34;;;;;;;4.32;1.65;;;;;;;19.45;32.15;99326.19;11228878;26;20110;-81
2024/04/11 13:40:28;;;;;;;3.08;2.03;;;;;;;21.27;29.93;99572.09;11261867;26;19999;-82
2024/04/11 13:45:22;;;;;;;2.70;1.88;;;;;;;21.72;29.01;99604.47;11258301;26;20027;-81
2024/04/11 13:50:43;;;;;;;6.82;1.85;;;;;;;21.53;28.89;99520.91;11265555;26;20006;-81
2024/04/11 13:55:53;;;;;;;2.67;1.58;;;;;;;21.63;28.49;99515.75;11278542;26;20003;-80
2024/04/11 14:01:06;;;;;;;3.95;2.05;;;;;;;21.06;29.31;99436.16;11250657;26;20452;-80
2024/04/11 14:11:34;;;;;;;9.00;2.22;;;;;;;20.83;30.35;99413.97;11237074;26;20078;-81
2024/04/11 14:16:56;;;;;;;;;;;;;;;22.06;34.64;99577.53;11232773;26;20035;-81
2024/04/11 14:22:29;;;;;;;4.95;1.92;;;;;;;21.74;28.27;99566.84;11264555;26;19924;-80
2024/04/11 14:27:38;;;;;;;4.10;1.80;;;;;;;21.00;29.28;99470.59;11254443;26;20415;-80
2024/04/11 14:38:09;;;;;;;3.95;2.05;;;;;;;21.36;27.58;99567.16;11217616;26;20076;-81
2024/04/11 14:43:20;;;;;;;4.13;1.83;;;;;;;21.02;27.28;99509.41;11248717;26;20003;-81
2024/04/11 14:48:36;;;;;;;4.30;1.75;;;;;;;21.29;28.13;99572.72;11271534;26;20049;-81
2024/04/11 14:53:46;;;;;;;4.00;1.73;;;;;;;21.09;28.77;99566.63;11261474;26;19999;-80
2024/04/11 14:58:53;;;;;;;;;;;;;;;21.29;33.49;99567.25;11261938;26;20529;-81
2024/04/11 15:04:05;;;;;;;5.00;1.45;;;;;;;20.79;29.58;99531.91;11241887;26;20004;-81
2024/04/11 15:14:32;;;;;;;3.60;1.83;;;;;;;20.75;28.18;99552.53;11250876;26;20010;-82
2024/04/11 15:19:43;;;;;;;6.15;2.15;;;;;;;20.64;28.56;99524.97;11248506;26;20002;-82
2024/04/11 15:24:49;;;;;;;3.40;2.15;;;;;;;20.74;28.20;99553.59;11260008;26;20010;-81
2024/04/11 15:30:04;;;;;;;2.40;2.05;;;;;;;20.55;27.18;99526.31;11274499;26;20663;-81
2024/04/11 15:35:39;;;;;;;6.15;1.88;;;;;;;20.96;28.47;99549.34;11245458;26;20852;-81
2024/04/11 15:40:50;;;;;;;3.50;1.85;;;;;;;21.09;28.07;99544.81;11228357;26;20049;-81
2024/04/11 15:46:18;;;;;;;5.50;2.08;;;;;;;20.49;27.86;99428.22;11267092;26;20003;-82
2024/04/11 15:51:29;;;;;;;4.13;2.17;;;;;;;21.24;27.12;99528.88;11279027;26;20015;-82
2024/04/11 15:56:37;;;;;;;3.83;1.85;;;;;;;21.40;27.34;99550.09;11262730;26;20042;-82
2024/04/11 16:01:43;;;;;;;4.53;1.80;;;;;;;21.43;27.63;99529.69;11272068;26;20040;-81
2024/04/11 16:06:58;;;;;;;2.45;1.63;;;;;;;21.46;28.97;99492.88;11247142;26;20034;-83
2024/04/11 16:12:09;;;;;;;4.85;1.58;;;;;;;21.91;28.57;99547.09;11278045;26;20050;-82
2024/04/11 16:17:15;;;;;;;3.60;1.77;;;;;;;22.03;27.95;99541.63;11281452;26;20058;-82
2024/04/11 16:22:26;;;;;;;5.53;1.98;;;;;;;21.76;28.02;99488.22;11277731;26;20019;-81
2024/04/11 16:27:36;;;;;;;3.28;1.67;;;;;;;21.95;27.52;99545.53;11272876;26;20530;-81
2024/04/11 16:32:43;;;;;;;3.08;1.45;;;;;;;21.50;27.18;99502.28;11265297;26;20002;-82
2024/04/11 16:38:07;;;;;;;3.45;1.77;;;;;;;21.82;27.76;99552.00;11271723;26;20052;-81
2024/04/11 16:43:12;;;;;;;4.45;1.70;;;;;;;21.64;27.75;99533.78;11271725;26;20554;-81
2024/04/11 16:48:18;;;;;;;2.90;1.70;;;;;;;21.22;27.78;99481.88;11239747;26;20044;-81
2024/04/11 16:53:32;;;;;;;4.28;1.80;;;;;;;19.78;28.29;99227.00;11280311;26;19999;-81
2024/04/11 16:58:47;;;;;;;4.22;1.60;;;;;;;21.07;28.08;99467.81;11277446;26;20324;-82
2024/04/11 17:03:55;;;;;;;3.80;1.88;;;;;;;20.92;27.15;99449.94;11269962;26;20781;-82
2024/04/11 17:09:07;;;;;;;4.88;1.80;;;;;;;21.60;27.65;99562.63;11274479;26;20480;-81
2024/04/11 17:14:28;;;;;;;1.60;1.40;;;;;;;21.50;27.18;99559.63;11267361;26;20022;-81
2024/04/11 17:19:39;;;;;;;;;;;;;;;21.71;31.23;99563.72;11224021;26;20007;-80
2024/04/11 17:24:51;;;;;;;;;;;;;;;21.63;31.10;99570.38;11267985;26;20294;-81
2024/04/11 17:30:13;;;;;;;5.15;1.70;;;;;;;20.91;27.50;99524.63;11262900;26;20925;-79
2024/04/11 17:35:42;;;;;;;4.35;1.63;;;;;;;20.33;28.04;99456.94;11273295;26;20059;-79
2024/04/11 17:40:49;;;;;;;4.88;1.95;;;;;;;20.73;29.13;99544.56;11270289;26;20394;-79
2024/04/11 17:45:56;;;;;;;4.57;1.90;;;;;;;20.45;29.27;99537.72;11192605;26;20094;-79
2024/04/11 17:51:07;;;;;;;4.05;2.05;;;;;;;20.19;30.28;99544.22;11254663;26;20003;-78
2024/04/11 17:56:23;;;;;;;4.13;2.10;;;;;;;20.40;31.05;99594.81;11284569;26;20032;-79
2024/04/11 18:01:30;;;;;;;2.90;1.85;;;;;;;20.02;31.10;99582.06;11274876;26;20042;-80
2024/04/11 18:06:43;;;;;;;7.63;2.22;;;;;;;19.95;31.40;99607.69;11229417;26;20018;-80
2024/04/11 18:11:56;;;;;;;5.13;2.25;;;;;;;19.65;31.98;99591.97;11276227;26;20010;-79
2024/04/11 18:17:09;;;;;;;3.40;1.65;;;;;;;19.29;32.41;99571.59;11274879;26;20537;-81
2024/04/11 18:22:23;;;;;;;5.00;2.15;;;;;;;19.28;32.43;99597.13;11266555;26;20002;-79
2024/04/11 18:27:32;;;;;;;6.45;2.10;;;;;;;19.10;33.06;99563.31;11268289;26;20002;-80
2024/04/11 18:32:40;;;;;;;3.67;2.33;;;;;;;19.22;33.60;99614.31;11273087;26;21236;-79
2024/04/11 18:37:49;;;;;;;3.90;2.00;;;;;;;18.78;34.05;99567.78;11270212;26;20052;-80
2024/04/11 18:42:57;;;;;;;4.85;2.00;;;;;;;18.49;33.78;99522.88;11266271;26;20724;-80
2024/04/11 18:48:12;;;;;;;7.82;2.45;;;;;;;18.93;34.19;99616.47;11245123;26;20075;-80
2024/04/11 18:53:24;;;;;;;3.53;2.00;;;;;;;18.04;34.69;99492.84;11273137;26;20007;-80
2024/04/11 18:58:35;;;;;;;6.25;2.70;;;;;;;18.80;34.92;99628.25;11269760;26;19998;-79
2024/04/11 19:03:42;;;;;;;3.60;2.17;;;;;;;18.51;35.19;99613.19;11276457;26;20027;-79
2024/04/11 19:08:48;;;;;;;3.65;2.30;;;;;;;18.48;35.33;99629.91;11272767;26;20139;-80
2024/04/11 19:13:57;;;;;;;5.72;2.22;;;;;;;18.23;35.44;99589.78;11283052;26;20069;-78
2024/04/11 19:19:07;;;;;;;3.92;2.15;;;;;;;17.95;36.63;99579.94;11275226;26;20031;-79
2024/04/11 19:24:14;;;;;;;3.00;2.00;;;;;;;18.03;35.81;99613.38;11244938;26;20022;-78
2024/04/11 19:29:23;;;;;;;7.53;2.70;;;;;;;17.92;36.20;99614.81;11258730;26;20002;-78
2024/04/11 19:34:32;;;;;;;5.28;2.90;;;;;;;17.74;36.77;99634.41;11231709;26;20030;-78
2024/04/11 19:39:42;;;;;;;3.08;1.95;;;;;;;17.57;37.30;99629.28;11247157;26;20071;-79
2024/04/11 19:44:51;;;;;;;3.53;2.38;;;;;;;16.95;37.24;99527.25;11288652;26;20059;-78
2024/04/11 19:50:00;;;;;;;7.72;2.90;;;;;;;17.35;38.76;99630.47;11278247;26;20063;-81
2024/04/11 19:55:20;;;;;;;3.20;2.00;;;;;;;17.08;38.23;99603.22;11273176;26;20091;-78
2024/04/11 20:00:43;;;;;;;;;;;;;;;17.43;35.77;99632.16;11241986;26;20031;-78
2024/04/11 20:05:58;;;;;;;4.78;2.28;;;;;;;16.38;38.18;99548.97;11289517;26;19978;-77
2024/04/11 20:11:18;;;;;;;3.92;2.65;;;;;;;16.88;39.06;99627.50;11273454;26;20086;-80
2024/04/11 20:16:27;;;;;;;4.43;2.70;;;;;;;16.39;38.60;99561.50;11249543;26;20068;-79
2024/04/11 20:21:38;;;;;;;4.95;2.80;;;;;;;16.39;39.31;99599.44;11279686;26;20023;-79
2024/04/11 20:26:46;;;;;;;7.28;3.30;;;;;;;16.49;39.75;99645.13;11240782;26;20359;-78
2024/04/11 20:31:54;;;;;;;6.47;3.53;;;;;;;16.45;40.03;99645.72;11239632;26;20003;-78
2024/04/11 20:37:03;;;;;;;6.95;3.65;;;;;;;16.25;40.44;99640.13;11276575;26;20048;-78
2024/04/11 20:42:41;;;;;;;8.95;3.97;;;;;;;16.09;40.78;99649.34;11231372;26;20003;-80
2024/04/11 20:47:54;;;;;;;;;;;;;;;16.21;37.33;99653.22;11259945;26;20003;-80
2024/04/11 21:36:46;;;;;;;7.03;3.22;;;;;;;14.65;44.31;99666.00;11157482;26;20053;-80
2024/04/11 21:41:55;;;;;;;7.30;3.67;;;;;;;14.17;44.71;99614.06;11250840;26;20003;-80
2024/04/11 21:47:02;;;;;;;6.30;3.50;;;;;;;14.49;44.99;99693.94;11261078;26;20002;-82
2024/04/11 21:52:11;;;;;;;6.95;3.72;;;;;;;14.35;44.94;99671.28;11259943;26;20021;-79
2024/04/11 21:57:22;;;;;;;5.57;3.50;;;;;;;14.29;45.01;99688.22;11258681;26;20002;-79
2024/04/11 22:02:30;;;;;;;6.07;3.38;;;;;;;13.99;45.15;99666.50;11230864;26;20007;-80
2024/04/11 22:07:40;;;;;;;12.48;3.40;;;;;;;14.15;45.53;99691.69;11271158;26;20023;-79
2024/04/11 22:12:45;;;;;;;4.65;3.13;;;;;;;13.79;45.52;99670.66;11276406;26;19998;-79
2024/04/11 22:17:52;;;;;;;6.53;2.97;;;;;;;13.85;45.20;99707.72;11280852;26;20062;-79
2024/04/11 22:23:00;;;;;;;4.47;3.03;;;;;;;13.43;45.80;99638.81;11257466;26;20048;-80
2024/04/11 22:28:11;;;;;;;6.53;3.35;;;;;;;13.64;45.66;99700.22;11270814;26;20124;-79
2024/04/11 22:33:17;;;;;;;5.70;3.35;;;;;;;13.23;46.07;99650.00;11249793;26;20137;-80
2024/04/11 22:38:28;;;;;;;8.85;3.45;;;;;;;13.50;45.63;99694.56;11273125;26;20043;-79
2024/04/11 22:43:37;;;;;;;6.18;3.47;;;;;;;13.24;46.50;99684.03;11258442;26;20052;-79
2024/04/11 22:48:43;;;;;;;7.45;3.78;;;;;;;12.90;46.36;99654.66;11220724;26;20584;-79
2024/04/11 22:53:52;;;;;;;6.50;3.58;;;;;;;13.04;46.22;99685.44;11252225;26;20009;-79
2024/04/11 22:59:16;;;;;;;7.82;3.72;;;;;;;12.96;46.82;99704.31;11262713;26;20003;-79
2024/04/11 23:04:30;;;;;;;5.13;3.17;;;;;;;12.14;47.39;99593.03;11257670;26;20415;-79
2024/04/11 23:09:38;;;;;;;6.55;3.60;;;;;;;12.77;47.44;99692.91;11257548;26;20007;-79
2024/04/11 23:14:43;;;;;;;5.85;3.42;;;;;;;12.70;47.75;99714.25;11265167;26;20057;-79
2024/04/11 23:19:58;;;;;;;7.40;3.50;;;;;;;12.58;47.16;99694.09;11286637;26;20019;-79
2024/04/11 23:25:13;;;;;;;6.75;3.67;;;;;;;12.54;47.91;99707.06;11229587;26;20047;-79
2024/04/11 23:30:27;;;;;;;7.07;3.40;;;;;;;12.15;49.13;99688.00;11263381;26;20505;-79
2024/04/11 23:35:32;;;;;;;8.02;3.83;;;;;;;12.14;49.77;99706.00;11259840;26;20059;-79
2024/04/11 23:40:44;;;;;;;8.55;3.80;;;;;;;12.03;49.58;99711.69;11271241;26;20003;-78
2024/04/11 23:45:58;;;;;;;17.27;3.65;;;;;;;11.31;50.08;99604.63;11274268;26;20002;-78
2024/04/11 23:56:46;;;;;;;7.55;4.13;;;;;;;11.73;50.06;99662.03;11257452;26;20555;-79
